Terminal Aerodrome Forecast
Issued by NWS Cleveland, OH

Home | Current Version | Previous Version | Text Only | Print | Product List | Glossary On
Versions: 1 2 3 4 5 6 7 8 9 10 11 12 13 14 15 16 17
000
FTUS41 KCLE 202300
TAFCAK
TAF
KCAK 202334Z 2100/2124 26012KT P6SM OVC040
      TEMPO 2102/2106 4SM -SHSN
     FM211400 23006KT P6SM SCT040=

USA.gov is the U.S. government's official web portal to all federal, state and local government web resources and services.